KOLF

Details ICAO KOLF (OLF)
Name L M Clayton
Region United States
Timezone America/Denver (UTC-7.0)
Plans Departing 1
Arriving 3
Stats Elevation 1,986 ft / 605 m (AMSL)
Location 48.094505° -105.575050°
Runways 1
Magnetic Variation 9.274° E
Sunrise 2017-12-12 14:45:03 UTC / 2017-12-12 07:45:03 Local
Sunset 2017-12-12 23:10:09 UTC / 2017-12-12 16:10:09 Local
Advertisement - Login to hide

Runways

ID Width Length Bearing (true) Bearing (mag) Surface Threshold Offset Overrun Length
11 100 ft / 30 m 5,080 ft / 1,548 m 120.05° 110.78° Asphalt 0 ft / 0 m 0 ft / 0 m
29 100 ft / 30 m 5,080 ft / 1,548 m 300.07° 290.80° Asphalt 0 ft / 0 m 0 ft / 0 m

Map

Weather


0- 5 10 15 20 25 30 35+ Temperature / ° C

Clouds and Precipitation
Forecast for 2017-12-13 06:00 UTC. Updated 33 minutes ago

Ground ~20,000 ft ~40,000 ft Winds

METAR

KOLF 130053Z AUTO 29015G22KT 10SM CLR 11/M05 A2983 RMK AO2 PK WND 30028/0025 SLP118 T01111050

TAF

KOLF 122322Z 1300/1324 29018G28KT P6SM SCT200 FM130200 29018KT P6SM BKN140 WS020/31045KT FM130500 29018KT P6SM SCT150 FM131900 30012KT P6SM SCT090

Frequencies

Recorded 118.32 MHz ASOS
Unicom 122.80 MHz CTAF/UNICOM
Warning: Do not use this data for real-world aviation or navigation. No guarantee of current accuracy is given.